Esquiu, Argentina
Current Conditions -  °F | °C
As of 4:00 PM on Thursday 18 Dec 2014 (Local Time) from SACO Reporting Station
Few Clouds Few Clouds  
Wind Chill: 86°   Ceiling: Unl
Heat Index: 86°   Visibility: 6mi
Dew Point: 54°   Wind: 10mph
Humidity: 33%   Direction: 360°N
Pressure: 29.88"   Gusts: NA
Location:  29.38°S, 65.28°W
Report Text: SACO 181900Z 36009KT 9999 FEW030TCU 30/12 Q1012
Loading
Personal Weather Stations






























Interactive Weather Map New forecast layout! Learn more

10-Day Weather Forecast

Advertisements
Track Severe Weather on mobile